createdAt,value
2017-09-13T00:01:08.580Z,1.80
2017-09-13T00:03:36.161Z,1.55
2017-09-13T00:06:03.245Z,1.62
2017-09-13T00:08:31.144Z,2.20
2017-09-13T00:10:58.238Z,1.83
2017-09-13T00:13:25.315Z,1.80
2017-09-13T00:15:52.357Z,1.75
2017-09-13T00:18:19.378Z,1.40
2017-09-13T00:20:46.426Z,1.58
2017-09-13T00:23:13.569Z,2.40
2017-09-13T00:25:41.188Z,2.80
2017-09-13T00:28:08.350Z,1.37
2017-09-13T00:30:35.410Z,1.80
2017-09-13T00:33:02.174Z,1.70
2017-09-13T00:35:29.384Z,2.08
2017-09-13T00:37:56.282Z,1.85
2017-09-13T00:40:23.833Z,1.52
2017-09-13T00:42:51.003Z,1.60
2017-09-13T00:45:18.971Z,1.58
2017-09-13T00:47:45.738Z,1.58
2017-09-13T00:50:13.266Z,1.92
2017-09-13T00:52:41.728Z,1.85
2017-09-13T00:55:08.505Z,1.77
2017-09-13T00:57:36.599Z,1.80
2017-09-13T01:00:03.705Z,1.73
2017-09-13T01:02:31.163Z,1.52
2017-09-13T01:04:58.237Z,1.40
2017-09-13T01:07:24.980Z,1.67
2017-09-13T01:09:51.748Z,1.75
2017-09-13T01:12:18.764Z,1.60
2017-09-13T01:14:45.496Z,1.55
2017-09-13T01:17:14.162Z,1.90
2017-09-13T01:19:40.903Z,1.10
2017-09-13T01:22:07.641Z,2.05
2017-09-13T01:24:45.825Z,1.25
2017-09-13T01:27:12.564Z,1.37
2017-09-13T01:29:39.332Z,1.87
2017-09-13T01:32:06.676Z,1.87
2017-09-13T01:34:33.451Z,1.30
2017-09-13T01:37:00.182Z,1.35
2017-09-13T01:39:26.957Z,1.40
2017-09-13T01:41:54.081Z,1.55
2017-09-13T01:44:21.192Z,1.50
2017-09-13T01:46:47.934Z,1.10
2017-09-13T01:49:14.704Z,1.48
2017-09-13T01:51:41.775Z,1.27
2017-09-13T01:54:08.536Z,1.30
2017-09-13T01:56:35.278Z,1.20
2017-09-13T01:59:02.029Z,1.40
2017-09-13T02:01:28.799Z,2.58
2017-09-13T02:03:55.535Z,1.35
2017-09-13T02:06:22.992Z,1.83
2017-09-13T02:08:53.280Z,1.90
2017-09-13T02:11:20.040Z,2.53
2017-09-13T02:13:47.041Z,1.85
2017-09-13T02:16:14.155Z,1.30
2017-09-13T02:18:40.892Z,1.50
2017-09-13T02:21:08.223Z,1.70
2017-09-13T02:23:36.681Z,1.75
2017-09-13T02:26:03.443Z,1.58
2017-09-13T02:28:30.545Z,1.60
2017-09-13T02:30:57.546Z,1.65
2017-09-13T02:33:24.311Z,1.83
2017-09-13T02:35:51.394Z,1.80
2017-09-13T02:38:18.146Z,1.60
2017-09-13T02:40:46.524Z,2.30
2017-09-13T02:43:14.069Z,1.90
2017-09-13T02:45:59.612Z,2.12
2017-09-13T03:13:58.538Z,2.33
2017-09-13T03:19:03.371Z,2.70
2017-09-13T03:21:31.658Z,3.20
2017-09-13T03:29:22.498Z,3.70
2017-09-13T03:31:58.886Z,3.12
2017-09-13T03:34:32.903Z,3.25
2017-09-13T03:39:46.605Z,2.55
2017-09-13T03:47:56.935Z,2.55
2017-09-13T04:47:44.286Z,2.80
2017-09-13T05:03:36.422Z,2.30
2017-09-13T05:06:04.874Z,2.25
2017-09-13T05:14:01.028Z,1.60
2017-09-13T06:07:21.713Z,1.12
2017-09-13T06:26:01.525Z,0.80
2017-09-13T06:48:12.024Z,0.88
2017-09-13T06:59:06.952Z,0.80
2017-09-13T07:04:19.566Z,1.10
2017-09-13T07:06:46.752Z,1.05
2017-09-13T07:14:39.699Z,0.90
2017-09-13T07:19:39.583Z,0.98
2017-09-13T07:22:21.074Z,0.65
2017-09-13T07:27:25.803Z,0.77
2017-09-13T07:29:53.441Z,1.10
2017-09-13T07:32:20.721Z,0.80
2017-09-13T07:40:02.548Z,0.88
2017-09-13T07:42:33.254Z,1.05
2017-09-13T07:45:05.592Z,0.80
2017-09-13T07:47:34.988Z,1.20
2017-09-13T07:50:07.784Z,1.30
2017-09-13T07:52:35.892Z,1.50
2017-09-13T07:57:36.261Z,1.48
2017-09-13T08:00:10.520Z,1.50
2017-09-13T08:02:39.226Z,1.58
2017-09-13T08:05:08.117Z,1.70
2017-09-13T08:07:35.656Z,1.17
2017-09-13T08:10:02.493Z,1.87
2017-09-13T08:12:29.256Z,2.08
2017-09-13T08:14:57.565Z,1.80
2017-09-13T08:17:25.237Z,1.77
2017-09-13T08:19:52.309Z,1.77
2017-09-13T08:22:19.064Z,1.92
2017-09-13T08:24:47.144Z,2.00
2017-09-13T08:27:19.879Z,2.28
2017-09-13T08:29:47.588Z,1.40
2017-09-13T08:32:15.307Z,1.58
2017-09-13T08:34:42.945Z,2.28
2017-09-13T08:37:10.628Z,2.35
2017-09-13T08:39:39.054Z,2.30
2017-09-13T08:42:06.039Z,1.95
2017-09-13T08:44:32.816Z,2.00
2017-09-13T08:47:00.702Z,1.90
2017-09-13T08:49:28.320Z,2.33
2017-09-13T08:51:55.412Z,2.60
2017-09-13T08:54:22.176Z,2.10
2017-09-13T08:56:49.144Z,1.85
2017-09-13T08:59:16.868Z,2.50
2017-09-13T09:01:43.894Z,2.60
2017-09-13T09:04:10.912Z,2.40
2017-09-13T09:06:39.796Z,2.15
2017-09-13T09:09:06.557Z,2.20
2017-09-13T09:11:33.336Z,2.22
2017-09-13T09:14:00.400Z,2.65
2017-09-13T09:16:27.179Z,1.85
2017-09-13T09:18:53.928Z,2.40
2017-09-13T09:21:21.016Z,2.28
2017-09-13T09:23:49.972Z,3.20
2017-09-13T09:26:16.731Z,2.87
2017-09-13T09:28:43.492Z,2.80
2017-09-13T09:31:10.283Z,2.60
2017-09-13T09:33:37.053Z,3.45
2017-09-13T09:36:04.480Z,3.67
2017-09-13T09:38:32.389Z,2.80
2017-09-13T09:40:59.551Z,2.85
2017-09-13T09:43:26.535Z,3.53
2017-09-13T09:45:53.320Z,3.30
2017-09-13T09:48:20.063Z,2.95
2017-09-13T09:50:46.828Z,2.92
2017-09-13T09:53:13.811Z,2.72
2017-09-13T09:55:40.961Z,2.95
2017-09-13T09:58:07.955Z,2.78
2017-09-13T10:00:34.729Z,2.50
2017-09-13T10:03:01.833Z,3.25
2017-09-13T10:05:28.620Z,3.30
2017-09-13T10:07:55.367Z,3.20
2017-09-13T10:10:22.477Z,4.43
2017-09-13T10:12:49.891Z,3.05
2017-09-13T10:15:19.140Z,3.05
2017-09-13T10:17:46.131Z,3.25
2017-09-13T10:20:12.916Z,3.15
2017-09-13T10:22:39.901Z,4.70
2017-09-13T10:25:07.431Z,3.70
2017-09-13T10:27:35.090Z,3.55
2017-09-13T10:30:02.564Z,3.75
2017-09-13T10:32:32.387Z,3.30
2017-09-13T10:35:00.021Z,3.60
2017-09-13T10:37:27.023Z,3.78
2017-09-13T10:39:54.253Z,4.00
2017-09-13T10:42:21.439Z,3.60
2017-09-13T10:44:48.653Z,4.03
2017-09-13T10:47:16.253Z,3.80
2017-09-13T10:49:43.744Z,3.40
2017-09-13T10:52:12.197Z,4.47
2017-09-13T10:54:39.303Z,3.28
2017-09-13T10:57:06.309Z,3.20
2017-09-13T10:59:33.358Z,3.67
2017-09-13T11:02:00.477Z,3.33
2017-09-13T11:04:27.507Z,3.00
2017-09-13T11:06:54.284Z,4.60
2017-09-13T11:09:21.256Z,3.10
2017-09-13T11:11:48.051Z,3.40
2017-09-13T11:14:16.068Z,3.87
2017-09-13T11:16:43.219Z,4.97
2017-09-13T11:19:09.964Z,3.17
2017-09-13T11:21:36.749Z,3.17
2017-09-13T11:24:03.929Z,3.53
2017-09-13T11:26:30.687Z,2.55
2017-09-13T11:28:57.769Z,2.12
2017-09-13T11:31:24.770Z,1.90
2017-09-13T11:33:51.752Z,2.35
2017-09-13T11:36:18.520Z,2.10
2017-09-13T11:38:45.488Z,1.90
2017-09-13T11:42:18.427Z,1.90
2017-09-13T11:44:45.171Z,1.85
2017-09-13T11:47:11.926Z,2.08
2017-09-13T11:49:39.058Z,2.20
2017-09-13T11:52:06.064Z,1.92
2017-09-13T11:54:33.036Z,2.60
2017-09-13T11:56:59.788Z,1.75
2017-09-13T11:59:26.537Z,2.00
2017-09-13T12:01:53.889Z,2.00
2017-09-13T12:04:20.633Z,2.37
2017-09-13T12:06:47.636Z,2.53
2017-09-13T12:09:14.388Z,2.92
2017-09-13T12:11:41.390Z,2.50
2017-09-13T12:14:08.364Z,2.40
2017-09-13T12:16:35.406Z,2.40
2017-09-13T12:19:02.467Z,3.08
2017-09-13T12:21:29.220Z,2.20
2017-09-13T12:23:56.342Z,2.45
2017-09-13T12:26:23.090Z,2.90
2017-09-13T12:28:49.860Z,2.05
2017-09-13T12:31:16.602Z,2.20
2017-09-13T12:33:43.367Z,2.30
2017-09-13T12:36:10.335Z,2.00
2017-09-13T12:38:37.488Z,1.80
2017-09-13T12:41:04.511Z,2.10
2017-09-13T12:43:31.968Z,2.20
2017-09-13T12:45:58.715Z,1.73
2017-09-13T12:48:25.915Z,1.70
2017-09-13T12:50:52.663Z,2.15
2017-09-13T12:53:19.433Z,1.80
2017-09-13T12:55:46.619Z,1.87
2017-09-13T12:58:13.778Z,2.35
2017-09-13T13:00:40.554Z,1.70
2017-09-13T13:03:07.718Z,2.08
2017-09-13T13:05:34.465Z,1.35
2017-09-13T13:08:01.245Z,1.90
2017-09-13T13:10:28.314Z,1.50
2017-09-13T13:12:56.012Z,1.37
2017-09-13T13:15:22.764Z,1.40
2017-09-13T13:17:49.533Z,2.03
2017-09-13T13:20:16.679Z,1.45
2017-09-13T13:22:43.834Z,2.12
2017-09-13T13:25:10.579Z,1.30
2017-09-13T13:27:39.490Z,1.98
2017-09-13T13:30:06.256Z,1.35
2017-09-13T13:32:33.399Z,1.50
2017-09-13T13:35:00.144Z,1.30
2017-09-13T13:37:27.264Z,2.00
2017-09-13T13:39:54.265Z,1.10
2017-09-13T13:42:21.316Z,2.25
2017-09-13T13:44:48.341Z,1.20
2017-09-13T13:47:15.100Z,1.20
2017-09-13T13:49:41.872Z,1.10
2017-09-13T13:52:08.620Z,1.20
2017-09-13T13:54:36.555Z,1.65
2017-09-13T13:57:03.304Z,1.35
2017-09-13T13:59:30.075Z,1.40
2017-09-13T14:01:56.829Z,1.00
2017-09-13T14:04:23.628Z,1.45
2017-09-13T14:06:52.167Z,1.45
2017-09-13T14:09:18.932Z,1.00
2017-09-13T14:11:46.000Z,2.42
2017-09-13T14:14:13.000Z,1.40
2017-09-13T14:16:39.774Z,1.25
2017-09-13T14:19:06.779Z,1.95
2017-09-13T14:21:33.526Z,1.02
2017-09-13T14:24:00.279Z,0.90
2017-09-13T14:26:27.052Z,1.30
2017-09-13T14:28:54.303Z,1.40
2017-09-13T14:31:21.389Z,1.50
2017-09-13T14:33:49.032Z,1.70
2017-09-13T14:36:16.160Z,1.17
2017-09-13T14:38:42.929Z,1.12
2017-09-13T14:41:09.993Z,1.30
2017-09-13T14:43:37.071Z,1.00
2017-09-13T14:46:05.305Z,1.20
2017-09-13T14:48:33.879Z,1.90
2017-09-13T14:53:37.976Z,1.20
2017-09-13T14:56:06.710Z,1.77
2017-09-13T14:58:38.867Z,1.35
2017-09-13T15:01:05.609Z,1.10
2017-09-13T15:03:32.659Z,1.48
2017-09-13T15:05:59.919Z,1.50
2017-09-13T15:08:26.664Z,1.45
2017-09-13T15:10:54.900Z,1.20
2017-09-13T15:13:21.639Z,1.37
2017-09-13T15:15:48.403Z,1.20
2017-09-13T15:18:15.477Z,1.10
2017-09-13T15:20:42.675Z,1.40
2017-09-13T15:23:09.415Z,1.10
2017-09-13T15:25:36.174Z,1.30
2017-09-13T15:28:02.913Z,1.70
2017-09-13T15:30:29.681Z,1.37
2017-09-13T15:32:56.431Z,1.00
2017-09-13T15:35:23.191Z,1.30
2017-09-13T15:37:49.950Z,1.52
2017-09-13T15:40:16.712Z,1.65
2017-09-13T15:42:43.447Z,1.52
2017-09-13T15:45:10.218Z,1.50
2017-09-13T15:47:37.301Z,1.70
2017-09-13T15:50:04.075Z,1.67
2017-09-13T15:52:30.815Z,1.30
2017-09-13T15:54:57.581Z,1.40
2017-09-13T15:57:24.572Z,1.40
2017-09-13T15:59:51.644Z,1.23
2017-09-13T16:02:18.389Z,1.40
2017-09-13T16:04:45.151Z,1.67
2017-09-13T16:07:12.325Z,1.60
2017-09-13T16:09:39.096Z,1.58
2017-09-13T16:12:06.693Z,1.30
2017-09-13T16:14:34.304Z,2.10
2017-09-13T16:17:01.044Z,1.80
2017-09-13T16:19:27.815Z,1.35
2017-09-13T16:21:54.569Z,1.83
2017-09-13T16:24:21.657Z,2.58
2017-09-13T16:26:48.644Z,1.85
2017-09-13T16:29:15.847Z,1.55
2017-09-13T16:31:42.654Z,1.30
2017-09-13T16:34:09.400Z,1.85
2017-09-13T16:36:36.155Z,1.92
2017-09-13T16:39:02.895Z,1.50
2017-09-13T16:41:29.665Z,1.80
2017-09-13T16:43:56.412Z,1.40
2017-09-13T16:46:23.180Z,1.80
2017-09-13T16:48:50.185Z,2.10
2017-09-13T16:51:16.939Z,1.62
2017-09-13T16:53:43.736Z,1.95
2017-09-13T16:56:10.505Z,2.08
2017-09-13T16:58:37.242Z,1.30
2017-09-13T17:01:03.999Z,1.60
2017-09-13T17:03:30.726Z,2.10
2017-09-13T17:08:28.719Z,1.95
2017-09-13T17:10:55.497Z,2.80
2017-09-13T17:13:22.227Z,2.20
2017-09-13T17:15:50.735Z,2.25
2017-09-13T17:18:17.471Z,2.50
2017-09-13T17:20:45.059Z,2.42
2017-09-13T17:23:12.208Z,2.20
2017-09-13T17:25:38.986Z,2.22
2017-09-13T17:28:05.733Z,2.55
2017-09-13T17:33:04.450Z,2.03
2017-09-13T17:35:31.199Z,2.25
2017-09-13T17:37:57.939Z,2.90
2017-09-13T17:40:25.096Z,3.17
2017-09-13T17:45:25.212Z,3.42
2017-09-13T17:47:56.136Z,3.87
2017-09-13T17:50:22.950Z,3.65
2017-09-13T17:52:49.739Z,2.85
2017-09-13T17:55:16.515Z,3.03
2017-09-13T17:57:43.303Z,2.92
2017-09-13T18:00:10.163Z,2.78
2017-09-13T18:02:36.963Z,3.03
2017-09-13T18:19:56.990Z,3.67
2017-09-13T18:45:50.256Z,4.57
2017-09-13T18:48:17.060Z,2.47
2017-09-13T18:50:53.712Z,3.05
2017-09-13T19:01:56.284Z,2.20
2017-09-13T19:04:24.894Z,1.95
2017-09-13T19:27:35.619Z,1.17
2017-09-13T19:53:10.288Z,1.08
2017-09-13T19:55:37.075Z,1.40
2017-09-13T20:03:36.548Z,1.50
2017-09-13T20:09:13.343Z,1.20
2017-09-13T20:14:26.235Z,1.12
2017-09-13T20:31:24.956Z,2.40
2017-09-13T21:26:26.051Z,8.07
2017-09-13T21:40:36.375Z,8.00
2017-09-13T21:49:06.307Z,6.28
2017-09-13T21:51:34.774Z,5.78
2017-09-13T21:56:59.887Z,5.80
2017-09-13T22:02:18.518Z,4.97
2017-09-13T22:07:16.325Z,3.78
2017-09-13T22:09:53.671Z,4.03
2017-09-13T22:12:30.097Z,3.30
2017-09-13T22:20:41.896Z,2.95
2017-09-13T22:29:00.340Z,2.75
2017-09-13T22:51:22.728Z,2.70
2017-09-13T22:54:04.004Z,3.28
2017-09-13T22:56:31.118Z,2.72
2017-09-13T22:58:59.585Z,4.65
2017-09-13T23:01:26.438Z,3.15
2017-09-13T23:03:53.588Z,3.00
2017-09-13T23:06:21.151Z,4.30
2017-09-13T23:08:50.527Z,3.90
2017-09-13T23:11:29.456Z,3.62
2017-09-13T23:16:32.396Z,2.50
2017-09-13T23:19:00.933Z,2.05
2017-09-13T23:31:40.914Z,1.23
2017-09-13T23:34:08.730Z,1.33
2017-09-13T23:36:39.992Z,1.20
2017-09-13T23:41:44.788Z,1.35
